Time;durP1;ratioP1;P1;durP2;ratioP2;P2;SDS_P1;SDS_P2;PMS_P1;PMS_P2;Temp;Humidity;BMP_temperature;BMP_pressure;BME280_temperature;BME280_humidity;BME280_pressure;Samples;Min_cycle;Max_cycle;Signal;HPM_P1;HPM_P2
2021/09/01 00:02:09;;;;;;;8.13;4.90;;;17.00;99.90;;;;;;5055296;28;20469;-48
2021/09/01 00:04:35;;;;;;;11.00;4.70;;;16.90;99.90;;;;;;5055395;28;20021;-49
2021/09/01 00:07:01;;;;;;;8.70;5.30;;;17.00;99.90;;;;;;5056073;28;20024;-48
2021/09/01 00:09:26;;;;;;;6.28;4.55;;;16.90;99.90;;;;;;5036677;28;20443;-49
2021/09/01 00:11:53;;;;;;;6.40;4.57;;;16.90;99.90;;;;;;5055333;28;20040;-48
2021/09/01 00:14:20;;;;;;;6.55;4.18;;;17.00;99.90;;;;;;5020312;28;20041;-49
2021/09/01 00:16:45;;;;;;;6.10;4.40;;;17.00;99.90;;;;;;5055168;28;20033;-49
2021/09/01 00:19:12;;;;;;;5.50;3.92;;;17.00;99.90;;;;;;5055159;28;20464;-49
2021/09/01 00:21:39;;;;;;;6.03;4.32;;;17.00;99.90;;;;;;5054642;28;20508;-49
2021/09/01 00:24:06;;;;;;;5.30;3.65;;;17.00;99.90;;;;;;5054527;28;20024;-49
2021/09/01 00:26:32;;;;;;;8.00;4.03;;;17.00;99.90;;;;;;5054803;28;20025;-48
2021/09/01 00:28:59;;;;;;;6.50;3.85;;;17.00;99.90;;;;;;5054844;28;20024;-49
2021/09/01 00:31:25;;;;;;;6.00;3.67;;;17.00;99.90;;;;;;5054702;28;20429;-49
2021/09/01 00:33:51;;;;;;;5.07;3.72;;;17.10;99.90;;;;;;5055060;28;20033;-49
2021/09/01 00:36:17;;;;;;;6.40;4.10;;;17.00;99.90;;;;;;5036476;28;20072;-48
2021/09/01 00:38:44;;;;;;;5.15;3.90;;;17.10;99.90;;;;;;5054557;28;20108;-49
2021/09/01 00:41:36;;;;;;;5.60;3.70;;;17.00;99.90;;;;;;5054770;28;20036;-49
2021/09/01 00:44:24;;;;;;;5.70;3.85;;;17.00;99.90;;;;;;5001303;28;20055;-49
2021/09/01 00:46:54;;;;;;;3.95;3.50;;;17.00;99.90;;;;;;5054542;28;20037;-48
2021/09/01 00:49:20;;;;;;;4.72;3.60;;;17.00;99.90;;;;;;5054513;28;20040;-48
2021/09/01 00:51:50;;;;;;;4.72;3.75;;;17.00;99.90;;;;;;5054329;28;20033;-49
2021/09/01 00:54:20;;;;;;;4.68;3.83;;;17.00;99.90;;;;;;4999481;28;20120;-48
2021/09/01 00:56:51;;;;;;;4.22;3.72;;;17.00;99.90;;;;;;5032667;28;20124;-49
2021/09/01 00:59:20;;;;;;;4.85;3.63;;;17.10;99.90;;;;;;5032294;28;20463;-49
2021/09/01 01:01:49;;;;;;;4.68;3.38;;;17.10;99.90;;;;;;5032180;28;20511;-48
2021/09/01 01:04:15;;;;;;;4.25;3.38;;;17.10;99.90;;;;;;5032244;28;20131;-49
2021/09/01 01:06:41;;;;;;;5.10;3.17;;;17.10;99.90;;;;;;5032310;28;20501;-49
2021/09/01 01:09:09;;;;;;;4.82;3.45;;;17.10;99.90;;;;;;5031943;28;20033;-49
2021/09/01 01:11:35;;;;;;;4.53;2.90;;;17.10;99.90;;;;;;5031996;28;20029;-49
2021/09/01 01:14:00;;;;;;;4.43;3.22;;;17.10;99.90;;;;;;5031923;28;20045;-49
2021/09/01 01:16:27;;;;;;;5.78;2.85;;;17.10;99.90;;;;;;5031908;28;20160;-48
2021/09/01 01:18:59;;;;;;;4.72;3.08;;;17.10;99.90;;;;;;4998945;28;20500;-49
2021/09/01 01:21:27;;;;;;;4.50;2.67;;;17.20;99.90;;;;;;5031687;28;20040;-49
2021/09/01 01:23:58;;;;;;;5.30;3.50;;;17.20;99.90;;;;;;4979890;28;20103;-49
2021/09/01 01:26:25;;;;;;;5.82;2.95;;;17.30;99.90;;;;;;5002823;28;20043;-48
2021/09/01 01:28:57;;;;;;;3.88;2.40;;;17.30;99.90;;;;;;5053767;28;20021;-49
2021/09/01 01:31:23;;;;;;;4.13;2.50;;;17.30;99.90;;;;;;5053629;28;20534;-48
2021/09/01 01:33:49;;;;;;;4.25;2.50;;;17.30;99.90;;;;;;5053723;28;20289;-48
2021/09/01 01:36:15;;;;;;;7.63;2.63;;;17.30;99.90;;;;;;5053504;28;20049;-48
2021/09/01 01:38:41;;;;;;;3.08;2.42;;;17.30;99.90;;;;;;5053666;28;20028;-48
2021/09/01 01:41:07;;;;;;;5.93;2.70;;;17.30;99.90;;;;;;5002032;28;20037;-48
2021/09/01 01:43:36;;;;;;;5.60;2.83;;;17.30;99.90;;;;;;5035205;28;20600;-49
2021/09/01 01:46:05;;;;;;;5.32;3.10;;;17.30;99.90;;;;;;5053523;28;20029;-49
2021/09/01 01:48:32;;;;;;;3.90;2.70;;;17.30;99.90;;;;;;5053605;28;20476;-48
2021/09/01 01:50:59;;;;;;;3.33;2.78;;;17.40;99.90;;;;;;5018993;28;20083;-48
2021/09/01 01:53:25;;;;;;;4.30;2.55;;;17.40;99.90;;;;;;5018437;28;20045;-48
2021/09/01 01:55:50;;;;;;;3.55;2.88;;;17.50;99.90;;;;;;5053006;28;20055;-48
2021/09/01 01:58:16;;;;;;;4.05;2.40;;;17.50;99.90;;;;;;5053627;28;20473;-48
2021/09/01 02:00:42;;;;;;;4.60;2.85;;;17.50;99.90;;;;;;5053295;28;20104;-49
2021/09/01 02:03:08;;;;;;;4.20;2.75;;;17.50;99.90;;;;;;5053657;28;20036;-48
2021/09/01 02:05:33;;;;;;;3.70;2.97;;;17.50;99.90;;;;;;5053418;28;20465;-49
2021/09/01 02:07:59;;;;;;;8.10;3.92;;;17.60;99.90;;;;;;5035696;28;20380;-49
2021/09/01 02:10:25;;;;;;;6.43;3.42;;;17.60;99.90;;;;;;5053160;28;20120;-48
2021/09/01 02:12:51;;;;;;;5.13;3.33;;;17.70;99.90;;;;;;5053490;28;20457;-49
2021/09/01 02:15:17;;;;;;;6.18;3.53;;;17.70;99.90;;;;;;5053240;28;20025;-49
2021/09/01 02:17:43;;;;;;;5.85;2.92;;;17.80;99.90;;;;;;5053285;28;20032;-48
2021/09/01 02:20:14;;;;;;;4.57;3.13;;;17.80;99.90;;;;;;5053135;28;20033;-48
2021/09/01 02:22:41;;;;;;;6.03;2.85;;;17.80;99.90;;;;;;5052932;28;20036;-48
2021/09/01 02:25:08;;;;;;;5.28;2.88;;;17.80;99.90;;;;;;5052872;28;20053;-49
2021/09/01 02:27:34;;;;;;;3.83;2.55;;;17.80;99.90;;;;;;5052991;28;20028;-48
2021/09/01 02:30:00;;;;;;;3.67;3.10;;;17.80;99.90;;;;;;5018567;28;20033;-48
2021/09/01 02:32:26;;;;;;;4.93;2.63;;;17.80;99.90;;;;;;5018459;28;20037;-49
2021/09/01 02:34:52;;;;;;;4.15;2.80;;;17.90;99.90;;;;;;5052996;28;20040;-48
2021/09/01 02:37:17;;;;;;;6.18;2.72;;;17.80;99.90;;;;;;5052852;28;20029;-48
2021/09/01 02:39:43;;;;;;;5.07;2.80;;;17.80;99.90;;;;;;5034382;28;20086;-49
2021/09/01 02:42:09;;;;;;;4.60;2.28;;;17.70;99.90;;;;;;5017987;28;20485;-48
2021/09/01 02:44:35;;;;;;;3.65;2.78;;;17.70;99.90;;;;;;5053071;28;20372;-48
2021/09/01 02:47:01;;;;;;;2.85;2.42;;;17.70;99.90;;;;;;5034725;28;20037;-48
2021/09/01 02:49:27;;;;;;;2.72;2.30;;;17.70;99.90;;;;;;5053043;28;20025;-48
2021/09/01 02:51:52;;;;;;;2.60;2.40;;;17.70;99.90;;;;;;5052665;28;20055;-48
2021/09/01 02:54:18;;;;;;;4.00;2.47;;;17.60;99.90;;;;;;5052700;28;20079;-48
2021/09/01 02:56:44;;;;;;;2.45;2.10;;;17.70;99.90;;;;;;5053247;28;20500;-48
2021/09/01 02:59:10;;;;;;;3.58;2.45;;;17.70;99.90;;;;;;5034695;28;20120;-48
2021/09/01 03:01:36;;;;;;;5.60;2.15;;;17.70;99.90;;;;;;5052799;28;20468;-48
2021/09/01 03:04:01;;;;;;;3.92;2.60;;;17.70;99.90;;;;;;5052827;28;20376;-48
2021/09/01 03:06:27;;;;;;;3.95;2.17;;;17.70;99.90;;;;;;5052740;28;20029;-48
2021/09/01 03:08:53;;;;;;;3.22;2.40;;;17.70;99.90;;;;;;5055043;28;20519;-48
2021/09/01 03:11:18;;;;;;;4.38;2.40;;;17.70;99.90;;;;;;5056321;28;20075;-48
2021/09/01 03:13:44;;;;;;;3.63;2.40;;;17.60;99.90;;;;;;5056242;28;20461;-49
2021/09/01 03:16:10;;;;;;;4.25;2.33;;;17.60;99.90;;;;;;5056202;28;20064;-48
2021/09/01 03:18:35;;;;;;;3.28;2.30;;;17.60;99.90;;;;;;5056274;28;20380;-48
2021/09/01 03:21:01;;;;;;;3.38;2.20;;;17.60;99.90;;;;;;5056155;28;20021;-48
2021/09/01 03:23:27;;;;;;;2.95;2.30;;;17.70;99.90;;;;;;5037581;28;20048;-48
2021/09/01 03:25:53;;;;;;;4.18;2.30;;;17.60;99.90;;;;;;5055631;28;20056;-48
2021/09/01 03:28:18;;;;;;;2.80;2.20;;;17.60;99.90;;;;;;5005149;28;20036;-48
2021/09/01 03:30:44;;;;;;;4.95;3.08;;;17.60;99.90;;;;;;5056197;28;20028;-48
2021/09/01 03:33:10;;;;;;;3.97;2.40;;;17.60;99.90;;;;;;5055853;28;20037;-48
2021/09/01 03:35:35;;;;;;;4.45;2.53;;;17.50;99.90;;;;;;5055920;28;20052;-50
2021/09/01 03:38:01;;;;;;;2.97;2.40;;;17.60;99.90;;;;;;5055782;28;20082;-49
2021/09/01 03:40:27;;;;;;;6.43;2.58;;;17.60;99.90;;;;;;5020954;28;20075;-49
2021/09/01 03:42:53;;;;;;;3.78;2.40;;;17.60;99.90;;;;;;5055672;28;20021;-49
2021/09/01 03:45:19;;;;;;;3.35;2.30;;;17.60;99.90;;;;;;5055709;28;20392;-49
2021/09/01 03:47:44;;;;;;;5.22;2.67;;;17.60;99.90;;;;;;5055652;28;20036;-49
2021/09/01 03:50:12;;;;;;;7.70;2.72;;;17.60;99.90;;;;;;5004337;28;20370;-49
2021/09/01 03:52:38;;;;;;;4.82;2.28;;;17.60;99.90;;;;;;5055443;28;20111;-49
2021/09/01 03:55:08;;;;;;;4.72;2.33;;;17.60;99.90;;;;;;5055523;28;20357;-49
2021/09/01 03:57:34;;;;;;;3.88;2.47;;;17.60;99.90;;;;;;5256755;22;20020;-48
2021/09/01 04:00:00;;;;;;;4.25;2.38;;;17.60;99.90;;;;;;5080969;28;20051;-48
2021/09/01 04:02:26;;;;;;;2.88;2.20;;;17.60;99.90;;;;;;5064211;28;20031;-48
2021/09/01 04:04:51;;;;;;;3.33;2.30;;;17.60;99.90;;;;;;5116035;28;20045;-49
2021/09/01 04:07:17;;;;;;;3.30;2.13;;;17.50;99.90;;;;;;5116162;28;20152;-51
2021/09/01 04:09:43;;;;;;;2.65;2.00;;;17.50;99.90;;;;;;5116248;28;20019;-48
2021/09/01 04:12:09;;;;;;;4.53;2.13;;;17.50;99.90;;;;;;5115726;28;20491;-48
2021/09/01 04:14:34;;;;;;;4.40;2.40;;;17.50;99.90;;;;;;5116018;28;20023;-50
2021/09/01 04:17:00;;;;;;;3.10;2.20;;;17.50;99.90;;;;;;5116008;28;20375;-47
2021/09/01 04:19:26;;;;;;;5.35;2.55;;;17.50;99.90;;;;;;5115428;28;20101;-49
2021/09/01 04:21:52;;;;;;;3.72;2.65;;;17.40;99.90;;;;;;5063707;28;20115;-48
2021/09/01 04:24:17;;;;;;;4.72;2.67;;;17.40;99.90;;;;;;5115853;28;20077;-47
2021/09/01 04:26:43;;;;;;;2.42;1.88;;;17.40;99.90;;;;;;5116164;28;20016;-47
2021/09/01 04:29:09;;;;;;;5.38;2.03;;;17.40;99.90;;;;;;5096744;28;20432;-48
2021/09/01 04:31:35;;;;;;;3.13;2.13;;;17.40;99.90;;;;;;5080165;28;20382;-49
2021/09/01 04:34:00;;;;;;;3.45;2.20;;;17.50;99.90;;;;;;5115391;28;20189;-49
2021/09/01 04:36:26;;;;;;;2.75;2.10;;;17.40;99.90;;;;;;5115596;28;20073;-49
2021/09/01 04:38:52;;;;;;;2.40;1.90;;;17.40;99.90;;;;;;5115165;28;20489;-49
2021/09/01 04:41:17;;;;;;;4.90;1.95;;;17.40;99.90;;;;;;5096853;28;20028;-47
2021/09/01 04:43:43;;;;;;;2.88;2.20;;;17.40;99.90;;;;;;5115360;28;20028;-48
2021/09/01 04:46:09;;;;;;;2.88;1.92;;;17.40;99.90;;;;;;5063257;28;20043;-48
2021/09/01 04:48:34;;;;;;;2.92;2.00;;;17.40;99.90;;;;;;5115634;28;20020;-49
2021/09/01 04:51:00;;;;;;;8.20;3.13;;;17.50;99.90;;;;;;5115037;28;20382;-49
2021/09/01 04:53:26;;;;;;;4.40;2.20;;;17.60;99.90;;;;;;5097419;28;20126;-50
2021/09/01 04:55:51;;;;;;;5.35;1.98;;;17.50;99.90;;;;;;5115269;28;20026;-48
2021/09/01 04:58:17;;;;;;;2.35;1.65;;;17.50;99.90;;;;;;5114821;28;20051;-49
2021/09/01 05:00:43;;;;;;;6.03;2.30;;;17.50;99.90;;;;;;5115250;28;20396;-49
2021/09/01 05:03:08;;;;;;;3.60;2.03;;;17.50;99.90;;;;;;5114824;28;20403;-48
2021/09/01 05:05:34;;;;;;;4.03;2.33;;;17.50;99.90;;;;;;5115074;28;20088;-49
2021/09/01 05:08:00;;;;;;;3.63;2.30;;;17.50;99.90;;;;;;5115097;28;20020;-49
2021/09/01 05:10:26;;;;;;;6.78;2.33;;;17.60;99.90;;;;;;5114687;28;20030;-49
2021/09/01 05:12:52;;;;;;;4.47;2.30;;;17.60;99.90;;;;;;5114731;28;20036;-50
2021/09/01 05:15:22;;;;;;;4.28;2.40;;;17.60;99.90;;;;;;5114895;28;20016;-49
2021/09/01 05:17:48;;;;;;;5.28;2.78;;;17.70;99.90;;;;;;5114465;28;20483;-49
2021/09/01 05:20:15;;;;;;;3.38;2.50;;;17.70;99.90;;;;;;5071969;28;20029;-50
2021/09/01 05:22:45;;;;;;;2.55;1.65;;;17.80;99.90;;;;;;5072333;28;20056;-48
2021/09/01 05:25:13;;;;;;;4.00;1.98;;;17.70;99.90;;;;;;5038903;28;20483;-50
2021/09/01 05:27:42;;;;;;;7.40;2.30;;;17.80;99.90;;;;;;5038357;28;20142;-50
2021/09/01 05:30:11;;;;;;;4.40;2.28;;;17.90;99.90;;;;;;5071636;28;20456;-50
2021/09/01 05:32:39;;;;;;;5.32;2.85;;;18.10;99.90;;;;;;5005892;28;20037;-48
2021/09/01 05:35:06;;;;;;;4.45;2.75;;;18.10;99.90;;;;;;5071782;28;20036;-49
2021/09/01 05:37:33;;;;;;;3.00;2.50;;;18.20;99.90;;;;;;5005651;28;20033;-48
2021/09/01 05:40:01;;;;;;;3.78;2.65;;;18.30;99.90;;;;;;5071861;28;20033;-50
2021/09/01 05:42:29;;;;;;;2.97;1.90;;;18.40;99.90;;;;;;5035168;28;20411;-49
2021/09/01 05:44:56;;;;;;;2.80;2.00;;;18.40;99.90;;;;;;5018346;28;20048;-48
2021/09/01 05:47:23;;;;;;;3.75;2.60;;;18.40;99.90;;;;;;5038160;28;20559;-50
2021/09/01 05:49:51;;;;;;;4.18;2.65;;;18.50;99.90;;;;;;5028713;28;20153;-49
2021/09/01 05:52:17;;;;;;;3.65;1.80;;;18.60;99.90;;;;;;5111641;28;20040;-48
2021/09/01 05:54:47;;;;;;;5.90;2.60;;;18.50;99.90;;;;;;5114357;28;20394;-49
2021/09/01 05:57:18;;;;;;;4.25;2.15;;;18.60;99.90;;;;;;5078647;28;20485;-49
2021/09/01 05:59:44;;;;;;;6.97;2.80;;;18.60;99.90;;;;;;5113897;28;20047;-48
2021/09/01 06:02:18;;;;;;;5.20;2.75;;;18.80;99.90;;;;;;5114222;28;20111;-49
2021/09/01 06:04:45;;;;;;;5.30;2.53;;;18.80;99.90;;;;;;5114270;28;20072;-48
2021/09/01 06:07:17;;;;;;;12.68;2.60;;;18.70;99.90;;;;;;5114209;28;20032;-48
2021/09/01 06:09:47;;;;;;;4.85;2.70;;;18.70;99.90;;;;;;5109181;28;20085;-48
2021/09/01 06:12:20;;;;;;;4.35;2.85;;;18.80;99.90;;;;;;5113778;28;20027;-50
2021/09/01 06:14:46;;;;;;;4.38;2.47;;;18.80;99.90;;;;;;5113882;28;20020;-49
2021/09/01 06:17:12;;;;;;;4.75;2.85;;;18.80;99.90;;;;;;5113770;28;20016;-50
2021/09/01 06:19:39;;;;;;;5.05;3.10;;;18.90;99.90;;;;;;5113995;28;20020;-49
2021/09/01 06:22:06;;;;;;;4.57;2.70;;;18.90;99.90;;;;;;5114077;28;20022;-49
2021/09/01 06:24:33;;;;;;;3.08;2.40;;;18.80;99.90;;;;;;5113931;28;20024;-49
2021/09/01 06:27:00;;;;;;;3.58;2.28;;;18.80;99.90;;;;;;5072309;28;20036;-48
2021/09/01 06:29:26;;;;;;;5.35;3.30;;;18.90;99.90;;;;;;5093731;28;20060;-50
2021/09/01 06:31:52;;;;;;;3.70;2.65;;;19.00;99.90;;;;;;5093632;28;20063;-48
2021/09/01 06:34:18;;;;;;;3.67;2.58;;;19.10;99.90;;;;;;5036085;28;20077;-50
2021/09/01 06:36:44;;;;;;;4.22;2.78;;;19.20;99.90;;;;;;5113592;28;20023;-50
2021/09/01 06:39:10;;;;;;;5.03;3.00;;;19.30;99.90;;;;;;5113752;28;20032;-50
2021/09/01 06:41:37;;;;;;;5.25;2.60;;;19.30;99.90;;;;;;5114119;28;20020;-50
2021/09/01 06:44:03;;;;;;;6.45;2.25;;;19.50;99.90;;;;;;5118067;28;20024;-48
2021/09/01 06:46:29;;;;;;;4.90;2.92;;;19.40;99.90;;;;;;5117504;28;20046;-50
2021/09/01 06:48:54;;;;;;;5.78;2.70;;;19.60;99.90;;;;;;5098838;28;20479;-50
2021/09/01 06:51:20;;;;;;;5.20;3.00;;;19.80;99.90;;;;;;5082031;28;20050;-48
2021/09/01 06:53:46;;;;;;;7.25;3.28;;;19.90;99.90;;;;;;5117517;28;20035;-49
2021/09/01 06:56:12;;;;;;;4.22;2.10;;;19.90;99.90;;;;;;5117449;28;20048;-48
2021/09/01 06:58:38;;;;;;;5.35;2.92;;;19.80;99.90;;;;;;5117323;28;20127;-49
2021/09/01 07:01:04;;;;;;;3.00;2.20;;;19.90;99.90;;;;;;5117456;28;20027;-50
2021/09/01 07:03:29;;;;;;;3.28;2.45;;;19.90;99.90;;;;;;5117426;28;20062;-49
2021/09/01 07:05:55;;;;;;;4.07;2.75;;;19.80;99.90;;;;;;5105212;28;20412;-49
2021/09/01 07:08:23;;;;;;;7.40;2.90;;;20.10;99.90;;;;;;5061430;28;20066;-50
2021/09/01 07:10:50;;;;;;;5.15;2.95;;;20.40;99.90;;;;;;5096650;28;20024;-48
2021/09/01 07:13:16;;;;;;;3.75;2.30;;;20.50;99.90;;;;;;5096550;28;20070;-48
2021/09/01 07:15:43;;;;;;;3.30;2.92;;;20.50;99.90;;;;;;5096754;28;20532;-49
2021/09/01 07:18:09;;;;;;;4.35;3.05;;;20.60;99.90;;;;;;5096437;28;20020;-48
2021/09/01 07:20:35;;;;;;;5.93;3.38;;;20.50;99.90;;;;;;5078090;28;20118;-48
2021/09/01 07:23:01;;;;;;;3.22;2.60;;;20.60;99.90;;;;;;5096412;28;20070;-50
2021/09/01 07:25:27;;;;;;;4.85;3.00;;;20.70;99.50;;;;;;5096619;28;20024;-50
2021/09/01 07:27:53;;;;;;;4.68;3.00;;;20.90;99.40;;;;;;5096489;28;20024;-50
2021/09/01 07:30:19;;;;;;;4.85;3.50;;;20.70;98.60;;;;;;5096495;28;20051;-50
2021/09/01 07:32:45;;;;;;;9.82;3.50;;;20.90;98.80;;;;;;5096402;28;20077;-48
2021/09/01 07:35:12;;;;;;;5.45;2.88;;;21.00;98.90;;;;;;5096124;28;20024;-48
2021/09/01 07:37:49;;;;;;;5.35;3.58;;;21.00;98.20;;;;;;5095987;28;20484;-48
2021/09/01 07:40:17;;;;;;;5.25;3.33;;;21.00;98.30;;;;;;5096877;28;20028;-48
2021/09/01 07:42:44;;;;;;;8.07;3.72;;;21.20;98.20;;;;;;5096238;28;20438;-48
2021/09/01 07:45:11;;;;;;;5.90;2.92;;;21.30;97.70;;;;;;5096043;28;20016;-48
2021/09/01 07:47:44;;;;;;;4.40;3.22;;;21.30;97.20;;;;;;5096111;28;20031;-50
2021/09/01 07:50:10;;;;;;;4.22;2.60;;;21.40;97.40;;;;;;5095892;28;20352;-50
2021/09/01 07:52:36;;;;;;;8.80;2.53;;;21.40;97.30;;;;;;5096068;28;20028;-50
2021/09/01 07:55:02;;;;;;;4.90;3.20;;;21.30;96.20;;;;;;5095338;28;20508;-48
2021/09/01 07:57:28;;;;;;;5.68;2.92;;;21.40;96.00;;;;;;5095742;28;20027;-48
2021/09/01 07:59:53;;;;;;;10.98;4.53;;;21.40;96.30;;;;;;5095742;28;20024;-49
2021/09/01 08:02:19;;;;;;;3.45;2.45;;;21.30;96.10;;;;;;5095955;28;20020;-48
2021/09/01 08:04:45;;;;;;;4.18;2.92;;;21.20;96.10;;;;;;5095550;28;20104;-50
2021/09/01 08:07:10;;;;;;;4.35;2.97;;;21.20;96.80;;;;;;5095798;28;20026;-49
2021/09/01 08:09:36;;;;;;;4.57;3.03;;;21.30;96.20;;;;;;5095787;28;20065;-49
2021/09/01 08:12:02;;;;;;;5.28;2.83;;;21.50;96.40;;;;;;5095742;28;20016;-50
2021/09/01 08:14:28;;;;;;;4.32;2.58;;;21.60;96.10;;;;;;5060321;28;20090;-49
2021/09/01 08:16:53;;;;;;;4.70;3.10;;;21.60;95.90;;;;;;5095707;28;20412;-48
2021/09/01 08:19:19;;;;;;;6.38;2.70;;;21.70;95.90;;;;;;5060633;28;20028;-50
2021/09/01 08:21:45;;;;;;;7.13;2.90;;;21.60;95.50;;;;;;5060080;28;20028;-49
2021/09/01 08:24:11;;;;;;;6.38;3.10;;;21.70;95.10;;;;;;5095521;28;20059;-49
2021/09/01 08:26:36;;;;;;;4.65;3.30;;;21.60;95.10;;;;;;5095809;28;20527;-48
2021/09/01 08:29:02;;;;;;;5.45;2.58;;;21.40;95.40;;;;;;5095526;28;20070;-50
2021/09/01 08:31:28;;;;;;;2.80;2.17;;;21.40;95.50;;;;;;5060067;28;20471;-49
2021/09/01 08:33:53;;;;;;;3.35;2.85;;;21.10;96.10;;;;;;5095255;28;20036;-49
2021/09/01 08:36:19;;;;;;;6.30;2.83;;;21.30;96.20;;;;;;5095549;28;20451;-50
2021/09/01 08:38:45;;;;;;;6.25;2.97;;;21.40;95.70;;;;;;5094957;28;20050;-48
2021/09/01 08:41:11;;;;;;;4.53;2.95;;;21.40;95.50;;;;;;5095145;28;20020;-48
2021/09/01 08:43:38;;;;;;;3.83;2.85;;;21.50;95.80;;;;;;5094994;28;20024;-49
2021/09/01 08:46:04;;;;;;;5.15;3.00;;;21.30;95.50;;;;;;5095078;28;20414;-49
2021/09/01 08:48:30;;;;;;;9.68;3.40;;;21.30;94.70;;;;;;5076197;28;20028;-49
2021/09/01 08:50:56;;;;;;;5.22;2.80;;;21.30;94.60;;;;;;5094956;28;20098;-49
2021/09/01 08:53:22;;;;;;;4.90;3.13;;;21.10;94.40;;;;;;5094644;28;20074;-48
2021/09/01 08:55:49;;;;;;;5.30;3.22;;;21.00;93.40;;;;;;5094897;28;20418;-48
2021/09/01 08:58:16;;;;;;;4.60;3.05;;;21.00;93.20;;;;;;5094170;28;20048;-50
2021/09/01 09:00:42;;;;;;;3.58;2.67;;;21.00;93.30;;;;;;5094799;28;20085;-48
2021/09/01 09:03:09;;;;;;;3.97;2.90;;;20.90;93.60;;;;;;5094811;28;20038;-50
2021/09/01 09:05:40;;;;;;;6.90;3.38;;;20.80;93.80;;;;;;5094671;28;20016;-49
2021/09/01 09:08:12;;;;;;;6.03;3.20;;;20.70;93.90;;;;;;5059624;28;20040;-49
2021/09/01 09:10:40;;;;;;;4.85;2.97;;;20.70;94.30;;;;;;5094944;28;20077;-49
2021/09/01 09:13:11;;;;;;;5.65;2.80;;;20.70;94.00;;;;;;5073509;28;20444;-49
2021/09/01 09:15:39;;;;;;;6.18;3.00;;;20.70;93.90;;;;;;5094559;28;20024;-48
2021/09/01 09:18:25;;;;;;;4.28;3.10;;;20.60;94.20;;;;;;5094104;28;20025;-49
2021/09/01 09:21:11;;;;;;;6.13;3.30;;;20.60;94.30;;;;;;5075983;28;20452;-48
2021/09/01 09:23:37;;;;;;;4.47;3.22;;;20.70;95.00;;;;;;5094413;28;20024;-49
2021/09/01 09:26:27;;;;;;;4.80;3.25;;;20.70;94.60;;;;;;5101168;28;20375;-49
2021/09/01 09:29:08;;;;;;;6.97;2.65;;;20.90;94.90;;;;;;5072382;28;20063;-50
2021/09/01 09:31:35;;;;;;;4.40;2.88;;;20.90;93.30;;;;;;5090884;28;20118;-49
2021/09/01 09:34:12;;;;;;;4.95;2.45;;;21.00;93.70;;;;;;5093887;28;20087;-50
2021/09/01 09:36:38;;;;;;;3.30;2.40;;;20.90;93.40;;;;;;5091334;28;20030;-49
2021/09/01 09:39:05;;;;;;;3.20;2.53;;;21.10;93.30;;;;;;5094772;28;20422;-49
2021/09/01 09:41:32;;;;;;;4.88;2.90;;;21.40;93.60;;;;;;5093948;28;20024;-49
2021/09/01 09:44:03;;;;;;;4.45;2.95;;;21.70;93.50;;;;;;5099048;28;20012;-48
2021/09/01 09:46:30;;;;;;;4.38;3.05;;;22.20;92.10;;;;;;5114147;28;20063;-50
2021/09/01 09:49:07;;;;;;;4.10;3.35;;;22.30;91.60;;;;;;5037981;28;20052;-48
2021/09/01 09:51:38;;;;;;;6.18;3.38;;;22.60;91.40;;;;;;5071743;28;20037;-49
2021/09/01 09:54:33;;;;;;;7.40;3.00;;;22.80;90.80;;;;;;5038472;28;20190;-50
2021/09/01 09:57:10;;;;;;;5.35;2.90;;;22.90;90.80;;;;;;5012339;28;20034;-49
2021/09/01 09:59:36;;;;;;;5.25;2.30;;;23.20;89.50;;;;;;5008824;28;20066;-49
2021/09/01 10:02:02;;;;;;;5.47;2.90;;;23.50;89.70;;;;;;4994593;28;20146;-50
2021/09/01 10:04:29;;;;;;;8.73;3.90;;;23.70;89.20;;;;;;4994752;28;20471;-48
2021/09/01 10:06:54;;;;;;;5.22;3.20;;;24.00;88.30;;;;;;5009649;28;20149;-49
2021/09/01 10:09:20;;;;;;;6.03;3.22;;;23.80;87.90;;;;;;5011346;28;20124;-48
2021/09/01 10:11:49;;;;;;;2.72;2.30;;;23.40;87.30;;;;;;5011327;28;20034;-51
2021/09/01 10:14:21;;;;;;;4.72;2.80;;;23.40;84.90;;;;;;5009513;28;20046;-49
2021/09/01 10:16:55;;;;;;;5.78;2.47;;;23.80;86.20;;;;;;5011001;28;20070;-49
2021/09/01 10:19:26;;;;;;;4.68;2.05;;;24.10;85.00;;;;;;5019440;28;20483;-49
2021/09/01 10:22:04;;;;;;;5.03;2.72;;;24.10;82.90;;;;;;5033870;28;20042;-49
2021/09/01 10:24:31;;;;;;;4.70;2.78;;;24.50;83.60;;;;;;4952745;28;20041;-50
2021/09/01 10:27:09;;;;;;;3.95;2.10;;;24.50;81.10;;;;;;5033506;28;20045;-51
2021/09/01 10:29:53;;;;;;;4.25;2.92;;;24.00;82.00;;;;;;5033746;28;20026;-50
2021/09/01 10:32:22;;;;;;;2.45;1.90;;;23.90;82.10;;;;;;5037460;28;20088;-50
2021/09/01 10:34:48;;;;;;;5.00;2.40;;;23.60;81.40;;;;;;5096172;28;20036;-50
2021/09/01 10:37:38;;;;;;;5.40;2.70;;;23.20;81.70;;;;;;5060198;28;20471;-51
2021/09/01 10:40:09;;;;;;;7.68;2.50;;;23.50;83.80;;;;;;5095797;28;20498;-51
2021/09/01 10:42:39;;;;;;;5.22;2.40;;;23.80;81.10;;;;;;5096088;28;20032;-51
2021/09/01 10:45:07;;;;;;;4.38;3.45;;;24.10;80.70;;;;;;5095931;28;20453;-49
2021/09/01 10:47:52;;;;;;;2.80;2.05;;;24.50;79.90;;;;;;5060126;28;20043;-49
2021/09/01 10:50:23;;;;;;;4.68;2.25;;;24.60;78.40;;;;;;5095815;28;20032;-50
2021/09/01 10:52:59;;;;;;;5.10;3.05;;;24.30;77.30;;;;;;5076579;28;20158;-51
2021/09/01 10:55:26;;;;;;;4.05;3.20;;;24.60;77.70;;;;;;5095562;28;20031;-49
2021/09/01 10:58:15;;;;;;;4.55;2.78;;;24.60;78.10;;;;;;5059836;28;20051;-49
2021/09/01 11:00:41;;;;;;;5.40;2.70;;;24.10;76.20;;;;;;5095635;28;20080;-49
2021/09/01 11:03:07;;;;;;;3.60;2.15;;;24.30;77.80;;;;;;5095644;28;20118;-51
2021/09/01 11:05:34;;;;;;;5.88;3.17;;;24.50;76.70;;;;;;5095401;28;20559;-50
2021/09/01 11:08:00;;;;;;;4.93;2.30;;;24.70;74.20;;;;;;5077328;28;20483;-50
2021/09/01 11:10:29;;;;;;;6.47;2.63;;;24.60;73.30;;;;;;5095391;28;20031;-51
2021/09/01 11:13:02;;;;;;;4.30;2.15;;;24.60;73.70;;;;;;5095298;28;20514;-50
2021/09/01 11:15:43;;;;;;;5.07;2.70;;;24.20;73.10;;;;;;5077182;28;20024;-50
2021/09/01 11:18:08;;;;;;;2.80;2.33;;;23.80;73.10;;;;;;5095153;28;20501;-49
2021/09/01 11:20:35;;;;;;;4.78;2.92;;;23.30;74.80;;;;;;5042728;28;20068;-51
2021/09/01 11:23:02;;;;;;;5.97;3.10;;;23.70;77.00;;;;;;5095306;28;20032;-49
2021/09/01 11:25:32;;;;;;;5.88;2.95;;;24.20;75.60;;;;;;5092173;28;20097;-50
2021/09/01 11:27:58;;;;;;;4.50;2.67;;;24.30;76.10;;;;;;5094492;28;20042;-49
2021/09/01 11:30:34;;;;;;;5.78;2.17;;;24.30;74.60;;;;;;5075644;28;20044;-49
2021/09/01 11:33:00;;;;;;;3.45;2.35;;;24.30;74.60;;;;;;5094850;28;20048;-49
2021/09/01 11:35:27;;;;;;;5.90;3.30;;;23.90;75.30;;;;;;5075911;28;20047;-50
2021/09/01 11:38:00;;;;;;;4.47;2.67;;;24.10;76.10;;;;;;5094892;28;20056;-49
2021/09/01 11:40:36;;;;;;;4.22;2.67;;;23.80;75.20;;;;;;5094817;28;20032;-50
2021/09/01 11:43:13;;;;;;;4.05;2.50;;;23.60;76.00;;;;;;5096220;28;20364;-50
2021/09/01 11:45:46;;;;;;;6.05;2.92;;;23.90;73.20;;;;;;5095806;28;20089;-50
2021/09/01 11:48:12;;;;;;;4.53;2.67;;;24.40;74.50;;;;;;5095970;28;20028;-48
2021/09/01 11:50:48;;;;;;;4.55;2.55;;;24.80;75.30;;;;;;5095969;28;20089;-50
2021/09/01 11:53:16;;;;;;;5.55;3.13;;;25.20;72.80;;;;;;5095841;28;20036;-50
2021/09/01 11:55:43;;;;;;;4.68;2.85;;;25.30;71.20;;;;;;5095965;28;20031;-51
2021/09/01 11:58:16;;;;;;;4.50;2.28;;;25.40;71.10;;;;;;5095766;28;20048;-50
2021/09/01 12:00:44;;;;;;;6.00;2.35;;;25.60;70.00;;;;;;5095629;28;20039;-50
2021/09/01 12:03:11;;;;;;;5.97;3.60;;;25.70;68.80;;;;;;5077621;28;20028;-50
2021/09/01 12:05:40;;;;;;;4.43;3.10;;;25.40;68.30;;;;;;5060446;28;20043;-51
2021/09/01 12:08:15;;;;;;;6.00;2.13;;;25.20;69.90;;;;;;5095492;28;20040;-50
2021/09/01 12:10:41;;;;;;;4.18;3.22;;;24.60;69.50;;;;;;5095481;28;20028;-50
2021/09/01 12:13:07;;;;;;;4.53;2.65;;;24.40;70.20;;;;;;5095307;28;20430;-49
2021/09/01 12:15:33;;;;;;;4.82;2.88;;;24.50;70.90;;;;;;5095536;28;20085;-50
2021/09/01 12:18:03;;;;;;;5.85;2.88;;;24.80;72.40;;;;;;5076480;28;20036;-50
2021/09/01 12:20:33;;;;;;;6.43;3.50;;;25.10;71.00;;;;;;5043598;28;20036;-50
2021/09/01 12:22:59;;;;;;;5.07;3.20;;;25.50;71.90;;;;;;5095825;28;20168;-50
2021/09/01 12:25:26;;;;;;;3.63;1.83;;;25.10;71.10;;;;;;5095279;28;20035;-50
2021/09/01 12:28:07;;;;;;;6.85;2.88;;;24.30;71.60;;;;;;5095474;28;20028;-51
2021/09/01 12:30:35;;;;;;;6.40;2.55;;;24.30;72.40;;;;;;5095208;28;20492;-49
2021/09/01 12:33:09;;;;;;;6.15;3.33;;;24.60;72.40;;;;;;5094932;28;20032;-51
2021/09/01 12:35:35;;;;;;;4.30;3.08;;;24.60;72.60;;;;;;5095082;28;20032;-49
2021/09/01 12:38:04;;;;;;;8.48;3.65;;;24.30;72.00;;;;;;5093096;28;20551;-51
2021/09/01 12:40:32;;;;;;;3.53;2.53;;;24.10;72.10;;;;;;5094706;28;20084;-49
2021/09/01 12:43:00;;;;;;;6.05;2.53;;;23.50;72.40;;;;;;5095031;28;20028;-49
2021/09/01 12:45:26;;;;;;;4.35;2.97;;;23.20;73.40;;;;;;5094750;28;20039;-50
2021/09/01 12:47:57;;;;;;;5.43;3.03;;;23.20;74.00;;;;;;5076185;28;20044;-51
2021/09/01 12:50:34;;;;;;;3.95;2.75;;;23.20;75.50;;;;;;5094889;28;20032;-50